createdAt,value
2019-04-16T00:01:55.576Z,61.97
2019-04-16T00:07:24.635Z,62.32
2019-04-16T00:13:27.040Z,62.04
2019-04-16T00:15:57.092Z,62.30
2019-04-16T00:18:26.600Z,61.91
2019-04-16T00:21:14.930Z,61.83
2019-04-16T00:24:03.231Z,61.40
2019-04-16T00:32:52.920Z,62.10
2019-04-16T00:35:22.428Z,62.05
2019-04-16T00:37:52.406Z,61.76
2019-04-16T00:40:26.378Z,61.63
2019-04-16T00:43:05.450Z,61.68
2019-04-16T00:45:35.000Z,61.77
2019-04-16T00:48:04.603Z,62.14
2019-04-16T00:50:34.027Z,62.04
2019-04-16T00:53:42.682Z,62.11
2019-04-16T00:56:13.389Z,62.21
2019-04-16T00:58:43.380Z,61.86
2019-04-16T01:01:12.810Z,62.63
2019-04-16T01:06:51.024Z,62.08
2019-04-16T01:09:20.382Z,62.07
2019-04-16T01:11:49.839Z,61.88
2019-04-16T01:14:21.008Z,62.88
2019-04-16T01:16:50.360Z,62.59
2019-04-16T01:22:16.012Z,62.22
2019-04-16T01:24:49.204Z,62.69
2019-04-16T01:27:17.654Z,62.79
2019-04-16T01:30:26.447Z,62.66
2019-04-16T01:39:14.817Z,63.28
2019-04-16T01:41:31.930Z,63.47
2019-04-16T01:44:01.436Z,63.25
2019-04-16T01:46:32.960Z,62.96
2019-04-16T01:52:03.440Z,63.52
2019-04-16T01:54:32.845Z,63.82
2019-04-16T01:57:02.728Z,63.53
2019-04-16T02:02:20.796Z,63.72
2019-04-16T02:04:52.133Z,64.04
2019-04-16T02:07:21.346Z,63.82
2019-04-16T02:09:50.779Z,64.31
2019-04-16T02:12:20.284Z,63.89
2019-04-16T02:15:01.590Z,64.65
2019-04-16T02:17:49.906Z,64.12
2019-04-16T02:23:45.405Z,65.71
2019-04-16T02:29:30.548Z,64.80
2019-04-16T02:32:00.556Z,64.61
2019-04-16T02:35:09.321Z,64.75
2019-04-16T02:40:53.437Z,64.32
2019-04-16T02:43:39.726Z,64.37
2019-04-16T02:49:08.139Z,64.17
2019-04-16T02:51:56.353Z,64.66
2019-04-16T02:54:44.756Z,64.66
2019-04-16T02:59:56.871Z,64.27
2019-04-16T03:02:45.093Z,64.41
2019-04-16T03:08:09.624Z,64.37
2019-04-16T03:10:41.851Z,64.64
2019-04-16T03:13:52.825Z,64.17
2019-04-16T03:22:19.579Z,63.96
2019-04-16T03:27:57.632Z,64.33
2019-04-16T03:30:27.218Z,65.30
2019-04-16T03:32:56.713Z,64.72
2019-04-16T03:35:26.820Z,64.66
2019-04-16T03:37:57.274Z,65.79
2019-04-16T03:40:37.918Z,65.25
2019-04-16T03:43:07.287Z,65.00
2019-04-16T03:46:16.370Z,65.16
2019-04-16T03:51:48.994Z,65.03
2019-04-16T03:54:57.630Z,65.54
2019-04-16T03:57:27.156Z,65.58
2019-04-16T03:59:56.622Z,65.16
2019-04-16T04:02:26.076Z,64.91
2019-04-16T04:05:35.712Z,64.41
2019-04-16T04:08:06.099Z,64.72
2019-04-16T04:10:37.191Z,64.29
2019-04-16T04:13:06.760Z,64.72
2019-04-16T04:18:44.881Z,64.40
2019-04-16T04:24:31.375Z,63.84
2019-04-16T04:26:59.752Z,63.62
2019-04-16T04:29:30.058Z,63.46
2019-04-16T04:32:03.067Z,63.18
2019-04-16T04:37:56.432Z,62.87
2019-04-16T04:40:25.846Z,62.47
2019-04-16T04:48:46.254Z,62.24
2019-04-16T04:51:15.616Z,61.56
2019-04-16T04:53:47.585Z,60.75
2019-04-16T04:59:18.990Z,58.36
2019-04-16T05:01:48.488Z,55.50
2019-04-16T05:04:36.824Z,52.11
2019-04-16T05:07:25.678Z,43.49
2019-04-16T05:10:39.822Z,38.16
2019-04-16T05:13:07.095Z,36.06
2019-04-16T05:15:36.460Z,33.65
2019-04-16T05:18:24.923Z,29.79
2019-04-16T05:20:54.352Z,26.78
2019-04-16T05:26:12.295Z,24.59
2019-04-16T05:28:45.363Z,22.71
2019-04-16T05:31:25.589Z,24.01
2019-04-16T05:36:36.150Z,23.83
2019-04-16T05:42:07.259Z,24.60
2019-04-16T05:44:36.823Z,24.23
2019-04-16T05:47:06.190Z,22.53
2019-04-16T05:53:13.211Z,24.95
2019-04-16T05:56:00.788Z,24.52
2019-04-16T06:04:12.496Z,28.38
2019-04-16T06:06:41.846Z,28.93
2019-04-16T06:09:12.257Z,31.05
2019-04-16T06:11:42.417Z,30.74
2019-04-16T06:14:30.632Z,29.77
2019-04-16T06:26:17.104Z,23.01
2019-04-16T06:32:08.433Z,23.02
2019-04-16T06:34:58.449Z,22.64
2019-04-16T06:37:47.235Z,22.26
2019-04-16T06:40:35.470Z,23.98
2019-04-16T06:43:15.516Z,25.39
2019-04-16T06:45:55.586Z,26.96
2019-04-16T06:48:29.930Z,28.69
2019-04-16T06:51:18.343Z,28.55
2019-04-16T06:54:20.952Z,29.20
2019-04-16T06:57:00.124Z,29.20
2019-04-16T06:59:39.044Z,30.59
2019-04-16T07:02:27.615Z,29.21
2019-04-16T07:05:16.161Z,31.47
2019-04-16T07:08:04.570Z,29.62
2019-04-16T07:10:44.331Z,29.23
2019-04-16T07:15:44.296Z,28.63
2019-04-16T07:18:13.769Z,27.71
2019-04-16T07:20:45.762Z,27.44
2019-04-16T07:23:14.626Z,26.82
2019-04-16T07:25:45.204Z,25.09
2019-04-16T07:28:34.227Z,25.54
2019-04-16T07:31:33.537Z,25.02
2019-04-16T07:34:12.736Z,25.13
2019-04-16T07:37:01.892Z,25.77
2019-04-16T07:51:40.033Z,23.35
2019-04-16T07:54:28.269Z,22.82
2019-04-16T07:57:37.151Z,22.73
2019-04-16T08:03:23.571Z,22.10
2019-04-16T08:05:53.039Z,23.48
2019-04-16T08:08:41.497Z,24.09
2019-04-16T08:11:11.127Z,24.34
2019-04-16T08:16:55.432Z,22.78
2019-04-16T08:19:36.070Z,23.90
2019-04-16T08:22:35.336Z,24.30
2019-04-16T08:28:13.583Z,26.02
2019-04-16T08:30:42.963Z,26.21
2019-04-16T08:33:31.230Z,26.02
2019-04-16T08:36:00.673Z,26.79
2019-04-16T08:38:34.037Z,27.19
2019-04-16T08:41:40.589Z,26.70
2019-04-16T08:44:10.779Z,26.37
2019-04-16T08:46:41.340Z,26.65
2019-04-16T08:52:10.256Z,25.31
2019-04-16T08:57:51.100Z,24.68
2019-04-16T09:03:26.948Z,25.84
2019-04-16T09:05:57.606Z,25.14
2019-04-16T09:08:45.917Z,24.54
2019-04-16T09:19:16.419Z,23.93
2019-04-16T09:21:58.476Z,24.63
2019-04-16T09:25:12.554Z,24.38
2019-04-16T09:27:41.057Z,24.14
2019-04-16T09:30:50.705Z,24.01
2019-04-16T09:36:27.227Z,23.48
2019-04-16T09:39:15.524Z,23.51
2019-04-16T09:44:46.510Z,25.05
2019-04-16T09:47:16.012Z,25.39
2019-04-16T09:49:45.338Z,25.56
2019-04-16T09:52:14.868Z,25.93
2019-04-16T09:54:45.134Z,24.92
2019-04-16T09:57:15.454Z,25.06
2019-04-16T10:00:03.747Z,24.84
2019-04-16T10:02:55.013Z,25.15
2019-04-16T10:05:26.459Z,25.11
2019-04-16T10:11:07.915Z,24.49
2019-04-16T10:16:52.307Z,24.72
2019-04-16T10:19:22.227Z,23.94
2019-04-16T10:22:32.243Z,24.29
2019-04-16T10:25:20.508Z,24.37
2019-04-16T10:28:08.790Z,24.36
2019-04-16T10:30:57.012Z,24.54
2019-04-16T10:36:46.247Z,24.24
2019-04-16T10:42:35.416Z,24.67
2019-04-16T10:48:37.915Z,23.97
2019-04-16T10:51:26.179Z,24.20
2019-04-16T10:54:14.705Z,24.90
2019-04-16T10:57:02.978Z,24.50
2019-04-16T10:59:51.385Z,24.44
2019-04-16T11:11:24.512Z,24.51
2019-04-16T11:17:21.803Z,24.60
2019-04-16T11:22:39.748Z,24.48
2019-04-16T11:25:09.245Z,24.89
2019-04-16T11:28:18.024Z,25.21
2019-04-16T11:34:17.328Z,25.65
2019-04-16T11:36:46.948Z,25.96
2019-04-16T11:39:16.447Z,25.63
2019-04-16T11:44:40.861Z,26.32
2019-04-16T11:47:10.361Z,25.17
2019-04-16T11:49:58.868Z,25.20
2019-04-16T11:55:42.460Z,25.03
2019-04-16T11:58:30.851Z,25.53
2019-04-16T12:04:27.103Z,26.52
2019-04-16T12:07:15.482Z,26.57
2019-04-16T12:10:24.156Z,26.75
2019-04-16T12:13:12.713Z,27.42
2019-04-16T12:16:01.191Z,27.32
2019-04-16T12:24:09.829Z,28.03
2019-04-16T12:26:53.357Z,27.78
2019-04-16T12:29:41.682Z,28.79
2019-04-16T12:32:30.230Z,28.80
2019-04-16T12:38:19.824Z,28.71
2019-04-16T12:41:08.080Z,29.07
2019-04-16T12:43:40.580Z,29.83
2019-04-16T12:49:33.367Z,30.53
2019-04-16T12:52:22.419Z,29.32
2019-04-16T12:55:11.654Z,29.94
2019-04-16T12:57:59.955Z,30.55
2019-04-16T13:00:48.229Z,30.11
2019-04-16T13:03:36.613Z,30.26
2019-04-16T13:12:28.166Z,31.15
2019-04-16T13:15:16.691Z,30.97
2019-04-16T13:18:05.070Z,31.37
2019-04-16T13:20:56.966Z,30.71
2019-04-16T13:24:03.789Z,30.56
2019-04-16T13:26:52.050Z,30.71
2019-04-16T13:29:29.006Z,30.27
2019-04-16T13:35:00.846Z,30.23
2019-04-16T13:40:44.911Z,29.94
2019-04-16T13:51:59.028Z,29.59
2019-04-16T13:54:47.393Z,29.19
2019-04-16T13:57:56.149Z,28.89
2019-04-16T14:00:44.486Z,28.91
2019-04-16T14:03:16.359Z,28.53
2019-04-16T14:05:45.848Z,27.80
2019-04-16T14:11:10.256Z,24.80
2019-04-16T14:13:42.008Z,22.86
2019-04-16T14:19:05.463Z,20.77
2019-04-16T14:36:32.219Z,19.69
2019-04-16T14:41:54.258Z,20.54
2019-04-16T14:50:13.964Z,19.68
2019-04-16T14:52:45.159Z,20.34
2019-04-16T14:56:00.746Z,20.29
2019-04-16T15:04:26.519Z,19.69
2019-04-16T15:07:14.908Z,20.34
2019-04-16T15:13:07.427Z,21.29
2019-04-16T15:16:07.208Z,21.47
2019-04-16T15:21:25.157Z,22.21
2019-04-16T15:24:13.490Z,21.92
2019-04-16T15:26:53.596Z,22.26
2019-04-16T15:29:42.088Z,22.21
2019-04-16T15:32:30.722Z,22.10
2019-04-16T15:35:00.192Z,23.04
2019-04-16T15:38:07.374Z,22.85
2019-04-16T15:41:17.534Z,23.34
2019-04-16T15:43:56.902Z,23.77
2019-04-16T15:46:43.811Z,23.89
2019-04-16T15:49:19.480Z,24.64
2019-04-16T15:52:02.717Z,25.75
2019-04-16T15:58:10.801Z,28.86
2019-04-16T16:03:59.992Z,31.30
2019-04-16T16:06:30.221Z,31.71
2019-04-16T16:09:07.481Z,31.88
2019-04-16T16:12:15.796Z,32.32
2019-04-16T16:21:00.668Z,32.79
2019-04-16T16:23:34.139Z,32.73
2019-04-16T16:26:01.595Z,32.89
2019-04-16T16:28:31.014Z,32.78
2019-04-16T16:31:00.440Z,32.97
2019-04-16T16:33:29.955Z,33.02
2019-04-16T16:36:00.388Z,33.06
2019-04-16T16:38:30.073Z,32.56
2019-04-16T16:40:59.501Z,32.12
2019-04-16T16:43:29.298Z,32.29
2019-04-16T16:46:05.520Z,31.61
2019-04-16T16:48:35.413Z,31.82
2019-04-16T16:51:04.882Z,31.63
2019-04-16T16:53:48.661Z,31.64
2019-04-16T16:56:26.139Z,31.55
2019-04-16T16:59:09.591Z,31.64
2019-04-16T17:02:18.297Z,31.87
2019-04-16T17:04:49.701Z,31.70
2019-04-16T17:07:19.117Z,31.58
2019-04-16T17:09:48.520Z,31.78
2019-04-16T17:12:18.006Z,31.94
2019-04-16T17:14:47.333Z,31.99
2019-04-16T17:17:16.828Z,32.22
2019-04-16T17:19:46.267Z,32.16
2019-04-16T17:22:17.444Z,32.04
2019-04-16T17:24:47.901Z,32.39
2019-04-16T17:27:17.362Z,32.18
2019-04-16T17:29:49.714Z,32.38
2019-04-16T17:35:15.591Z,32.59
2019-04-16T17:37:43.791Z,32.62
2019-04-16T17:40:22.199Z,32.94
2019-04-16T17:46:39.596Z,33.17
2019-04-16T17:49:46.977Z,33.18
2019-04-16T17:52:35.283Z,33.82
2019-04-16T18:04:30.490Z,34.14
2019-04-16T18:07:18.803Z,34.51
2019-04-16T18:10:07.138Z,34.88
2019-04-16T18:12:45.002Z,35.22
2019-04-16T18:15:22.250Z,35.40
2019-04-16T18:18:16.832Z,35.53
2019-04-16T18:24:01.879Z,35.73
2019-04-16T18:27:12.470Z,36.20
2019-04-16T18:30:23.051Z,36.08
2019-04-16T18:33:33.117Z,36.16
2019-04-16T18:36:40.579Z,36.40
2019-04-16T18:48:15.159Z,37.54
2019-04-16T18:50:44.570Z,37.84
2019-04-16T18:53:14.078Z,37.64
2019-04-16T18:55:43.515Z,37.84
2019-04-16T18:58:13.003Z,38.08
2019-04-16T19:00:50.938Z,38.32
2019-04-16T19:03:20.412Z,37.87
2019-04-16T19:05:49.856Z,38.12
2019-04-16T19:08:19.368Z,38.36
2019-04-16T19:10:48.897Z,38.88
2019-04-16T19:13:20.084Z,39.28
2019-04-16T19:15:50.111Z,39.14
2019-04-16T19:18:20.430Z,39.29
2019-04-16T19:20:51.847Z,38.89
2019-04-16T19:23:22.100Z,39.72
2019-04-16T19:25:54.730Z,39.94
2019-04-16T19:28:23.681Z,40.28
2019-04-16T19:31:32.384Z,40.30
2019-04-16T19:37:03.756Z,40.38
2019-04-16T19:39:33.181Z,41.05
2019-04-16T19:42:25.720Z,42.93
2019-04-16T19:44:54.288Z,43.50
2019-04-16T19:50:36.610Z,44.23
2019-04-16T19:53:04.505Z,45.92
2019-04-16T19:55:33.898Z,44.76
2019-04-16T19:58:03.278Z,44.61
2019-04-16T20:00:32.664Z,44.87
2019-04-16T20:03:02.075Z,45.12
2019-04-16T20:05:31.522Z,47.07
2019-04-16T20:08:01.130Z,46.06
2019-04-16T20:10:31.058Z,46.74
2019-04-16T20:13:00.442Z,46.57
2019-04-16T20:15:29.965Z,45.95
2019-04-16T20:17:59.477Z,47.47
2019-04-16T20:21:08.311Z,47.17
2019-04-16T20:32:48.931Z,47.44
2019-04-16T20:35:19.168Z,47.94
2019-04-16T20:37:50.406Z,47.80
2019-04-16T20:43:15.086Z,48.29
2019-04-16T20:45:44.412Z,48.37
2019-04-16T20:48:13.792Z,48.83
2019-04-16T20:50:43.324Z,48.87
2019-04-16T20:53:12.663Z,49.54
2019-04-16T20:55:47.121Z,48.92
2019-04-16T20:58:14.903Z,49.66
2019-04-16T21:00:47.023Z,49.78
2019-04-16T21:03:22.170Z,49.33
2019-04-16T21:05:57.748Z,49.66
2019-04-16T21:08:24.394Z,49.50
2019-04-16T21:10:51.023Z,50.04
2019-04-16T21:13:20.571Z,50.61
2019-04-16T21:15:49.945Z,51.29
2019-04-16T21:18:19.299Z,51.30
2019-04-16T21:20:51.070Z,51.85
2019-04-16T21:23:19.852Z,52.33
2019-04-16T21:25:49.218Z,51.91
2019-04-16T21:34:02.934Z,52.48
2019-04-16T21:36:51.232Z,52.86
2019-04-16T21:45:23.249Z,53.65
2019-04-16T21:51:01.292Z,55.34
2019-04-16T21:53:30.807Z,54.74
2019-04-16T22:07:40.934Z,55.02
2019-04-16T22:10:10.654Z,55.58
2019-04-16T22:16:14.708Z,55.15
2019-04-16T22:21:58.062Z,55.67
2019-04-16T22:25:06.829Z,55.93
2019-04-16T22:27:36.808Z,55.73
2019-04-16T22:36:23.166Z,56.31
2019-04-16T22:38:59.034Z,55.94
2019-04-16T22:41:47.411Z,56.64
2019-04-16T22:44:36.102Z,56.72
2019-04-16T22:47:20.606Z,57.47
2019-04-16T22:49:51.633Z,57.17
2019-04-16T22:52:21.263Z,58.05
2019-04-16T22:54:52.956Z,58.22
2019-04-16T22:57:21.928Z,58.40
2019-04-16T23:00:30.549Z,57.99
2019-04-16T23:03:39.314Z,57.78
2019-04-16T23:06:08.858Z,57.72
2019-04-16T23:08:40.509Z,58.06
2019-04-16T23:11:09.521Z,57.71
2019-04-16T23:14:18.278Z,57.93
2019-04-16T23:16:49.296Z,57.86
2019-04-16T23:19:20.339Z,58.19
2019-04-16T23:22:29.085Z,58.01
2019-04-16T23:25:17.651Z,58.07
2019-04-16T23:27:47.303Z,58.59
2019-04-16T23:30:19.222Z,58.35
2019-04-16T23:33:01.436Z,59.28
2019-04-16T23:35:31.251Z,58.92
2019-04-16T23:38:01.132Z,58.64
2019-04-16T23:41:15.532Z,58.70
2019-04-16T23:44:01.085Z,58.74
2019-04-16T23:46:49.362Z,59.56
2019-04-16T23:49:37.166Z,59.54
2019-04-16T23:58:29.173Z,59.30
